Terminal Aerodrome Forecast
Issued by NWS

Home | Current Version | Previous Version | Text Only | Print | Product List | Glossary On
Versions: 1 2 3 4 5 6 7 8 9 10 11 12 13 14
000
FTUS45 KRIW 171700
TAFCPR
TAF
KCPR 171720Z 1718/1818 VRB06KT P6SM VCSH SCT025 OVC040
      TEMPO 1720/1724 3SM -SHRASN SCT010 OVC025
     FM180000 05010KT P6SM VCSH SCT015 BKN030
     FM180500 02006KT 3SM -SHSNRA BR SCT010 OVC020
     FM181600 34008KT P6SM VCSH SCT020 BKN040=

USA.gov is the U.S. government's official web portal to all federal, state and local government web resources and services.